»·PEaware :: N21056 KSFO-KFAT

N21056 :: KSFO-KFAT

FLIGHT INFORMATION

Flight Status: Arrived
Operator: Privately registered:
United States
More flights under this callsign
Pilot: Erik K. (18332)
Aircraft: PILATUS PC-12 EAGLE
(PC12)
More flights by this aircraft type
Origin: KSFO San Francisco Intl
United States
Destination: KFAT Fresno Yosemite Intl
United States
More flights between these airports :: More routes between these airports
Route: +SFO4 OAK V107 VINCO T331 NTELL
File this flight plan on PilotEdge
Remarks:
Altitude:
(Current/Filed)
15,000ft
Speed:
(Current/Filed)
240kts
Departed: 01-Jun-19 05:22 PM
Arrived: 01-Jun-19 06:30 PM
Distance/Time
Traveled:
137nm/1:07
Distance/Time
To Go:
Arrived

Flight Plot

Page will automatically refresh every two minutes.

Flight plan parsing failed; only flown route is shown


Map Options




Map Legend


Flown Route
Filed Route
Departure Airport
Arrival Airport
Navaid (VOR, NDB)
Fix

Horizontal Profiles

Position Reports

Time Latitude Longitude Heading Altitude Ground
Speed
01-Jun-19 17:02 37.627657 -122.383095 300 12ft 0kts
01-Jun-19 17:03 37.627657 -122.383095 300 12ft 0kts
01-Jun-19 17:04 37.627657 -122.383095 300 12ft 0kts
01-Jun-19 17:05 37.627657 -122.383095 300 12ft 0kts
01-Jun-19 17:06 37.627657 -122.383095 300 12ft 0kts
01-Jun-19 17:07 37.627657 -122.383095 300 12ft 0kts
01-Jun-19 17:07 37.627657 -122.383095 300 12ft 0kts
01-Jun-19 17:09 37.627657 -122.383095 300 12ft 0kts
01-Jun-19 17:10 37.627657 -122.383095 300 12ft 0kts
01-Jun-19 17:10 37.627657 -122.383095 299 12ft 0kts
01-Jun-19 17:11 37.627657 -122.383095 300 12ft 0kts
01-Jun-19 17:13 37.627657 -122.383095 300 12ft 0kts
01-Jun-19 17:13 37.627657 -122.383095 300 12ft 0kts
01-Jun-19 17:14 37.627657 -122.383095 300 12ft 0kts
01-Jun-19 17:16 37.627657 -122.383095 300 12ft 0kts
01-Jun-19 17:16 37.626847 -122.383052 160 13ft 17kts
01-Jun-19 17:17 37.623603 -122.377342 121 18ft 21kts
01-Jun-19 17:18 37.622649 -122.375448 163 16ft 0kts
01-Jun-19 17:19 37.622649 -122.375448 163 16ft 0kts
01-Jun-19 17:20 37.622257 -122.375611 221 17ft 10kts
01-Jun-19 17:21 37.627133 -122.390638 297 608ft 93kts
01-Jun-19 17:29 37.627662 -122.383106 300 12ft 0kts
01-Jun-19 17:30 37.627662 -122.383106 300 12ft 0kts
01-Jun-19 17:31 37.625810 -122.382691 117 17ft 19kts
01-Jun-19 17:32 37.622670 -122.375463 169 16ft 17kts
01-Jun-19 17:33 37.622514 -122.375456 192 16ft 0kts
01-Jun-19 17:34 37.622506 -122.375458 194 16ft 0kts
01-Jun-19 17:35 37.622409 -122.378422 296 22ft 44kts
01-Jun-19 17:36 37.634376 -122.409984 291 1542ft 115kts
01-Jun-19 17:37 37.649125 -122.446292 301 3870ft 124kts
01-Jun-19 17:38 37.669311 -122.490569 301 4697ft 205kts
01-Jun-19 17:39 37.718046 -122.522687 26 5090ft 235kts
01-Jun-19 17:40 37.731030 -122.450787 104 6759ft 222kts
01-Jun-19 17:41 37.724874 -122.376549 87 8562ft 200kts
01-Jun-19 17:42 37.725092 -122.310121 86 10678ft 183kts
01-Jun-19 17:43 37.725509 -122.247070 87 12619ft 179kts
01-Jun-19 17:44 37.702659 -122.191691 124 14493ft 187kts
01-Jun-19 17:45 37.665028 -122.135264 127 15002ft 242kts
01-Jun-19 17:46 37.618182 -122.067317 128 14991ft 266kts
01-Jun-19 17:47 37.568141 -121.994686 128 14499ft 285kts
01-Jun-19 17:48 37.517445 -121.921266 127 14784ft 264kts
01-Jun-19 17:49 37.469191 -121.851331 127 14971ft 270kts
01-Jun-19 17:50 37.418985 -121.778890 128 14970ft 277kts
01-Jun-19 17:51 37.369661 -121.704117 120 14969ft 277kts
01-Jun-19 17:52 37.327807 -121.623015 119 14966ft 277kts
01-Jun-19 17:53 37.285986 -121.541643 119 14968ft 277kts
01-Jun-19 17:54 37.244190 -121.460555 119 14983ft 277kts
01-Jun-19 17:55 37.202636 -121.379061 119 14992ft 276kts
01-Jun-19 17:56 37.160923 -121.298354 119 15008ft 275kts
01-Jun-19 17:57 37.138781 -121.208844 99 15021ft 269kts
01-Jun-19 17:58 37.123093 -121.118896 101 15079ft 258kts
01-Jun-19 17:59 37.107751 -121.031813 103 15039ft 256kts
01-Jun-19 18:00 37.091995 -120.943639 104 15011ft 264kts
01-Jun-19 18:01 37.075808 -120.852796 104 15010ft 269kts
01-Jun-19 18:02 37.058964 -120.759091 103 13856ft 295kts
01-Jun-19 18:03 37.042006 -120.664739 103 12244ft 259kts
01-Jun-19 18:04 37.028156 -120.579796 107 11011ft 237kts
01-Jun-19 18:05 37.013553 -120.505013 99 10593ft 217kts
01-Jun-19 18:06 36.997086 -120.431357 102 9502ft 228kts
01-Jun-19 18:07 36.983291 -120.353337 101 8215ft 231kts
01-Jun-19 18:08 36.969027 -120.275976 102 7002ft 223kts
01-Jun-19 18:09 36.955544 -120.202032 102 6134ft 214kts
01-Jun-19 18:10 36.942418 -120.130142 102 5271ft 211kts
01-Jun-19 18:11 36.930075 -120.062751 102 5005ft 177kts
01-Jun-19 18:12 36.919929 -120.007177 102 5007ft 153kts
01-Jun-19 18:13 36.910646 -119.956247 102 5011ft 156kts
01-Jun-19 18:14 36.900558 -119.900340 101 5096ft 168kts
01-Jun-19 18:15 36.893180 -119.842781 79 5289ft 167kts
01-Jun-19 18:16 36.934307 -119.826859 329 4590ft 188kts
01-Jun-19 18:17 36.968628 -119.875066 319 3686ft 182kts
01-Jun-19 18:18 37.003001 -119.920729 289 2861ft 175kts
01-Jun-19 18:19 37.023443 -119.969223 349 2696ft 145kts
01-Jun-19 18:20 37.027401 -119.939380 143 3081ft 134kts
01-Jun-19 18:21 36.997761 -119.913427 149 2692ft 126kts
01-Jun-19 18:22 36.969617 -119.888899 141 2772ft 127kts
01-Jun-19 18:23 36.940063 -119.861395 144 2839ft 137kts
01-Jun-19 18:24 36.908500 -119.834592 144 2819ft 137kts
01-Jun-19 18:25 36.876082 -119.808603 148 2711ft 144kts
01-Jun-19 18:26 36.840470 -119.785204 155 2210ft 128kts
01-Jun-19 18:27 36.813093 -119.761619 139 1221ft 119kts
01-Jun-19 18:28 36.788274 -119.737854 123 532ft 109kts
01-Jun-19 18:29 36.777107 -119.717793 131 332ft 36kts
01-Jun-19 18:30 36.773107 -119.717499 296 329ft 19kts
01-Jun-19 18:31 36.773016 -119.720282 287 328ft 0kts

Navigation Log

Ident Type
Flight plan parsing failed, navigation log unavailable